Time;durP1;ratioP1;P1;durP2;ratioP2;P2;SDS_P1;SDS_P2;PMS_P1;PMS_P2;Temp;Humidity;BMP_temperature;BMP_pressure;BME280_temperature;BME280_humidity;BME280_pressure;Samples;Min_cycle;Max_cycle;Signal;HPM_P1;HPM_P2
2023/12/23 00:00:18;;;;;;;9.57;1.70;;;10.20;79.30;;;;;;5055883;28;20048;-62
2023/12/23 00:02:44;;;;;;;6.68;2.22;;;10.20;79.40;;;;;;5057785;28;20048;-62
2023/12/23 00:05:10;;;;;;;5.32;1.73;;;10.20;79.40;;;;;;5054304;28;20021;-62
2023/12/23 00:07:36;;;;;;;5.97;1.30;;;10.20;79.40;;;;;;5057431;28;20430;-62
2023/12/23 00:10:05;;;;;;;7.32;2.00;;;10.20;79.40;;;;;;5054270;28;20036;-62
2023/12/23 00:12:30;;;;;;;9.65;2.22;;;10.20;79.40;;;;;;5054595;28;20025;-62
2023/12/23 00:14:56;;;;;;;9.23;1.80;;;10.20;79.40;;;;;;5038173;28;20098;-62
2023/12/23 00:17:22;;;;;;;7.32;1.73;;;10.20;79.40;;;;;;5054926;28;20111;-62
2023/12/23 00:19:48;;;;;;;8.30;1.80;;;10.20;79.40;;;;;;5053786;28;20148;-63
2023/12/23 00:22:14;;;;;;;6.93;1.75;;;10.20;79.40;;;;;;5035840;28;20494;-63
2023/12/23 00:24:39;;;;;;;9.45;2.25;;;10.30;79.50;;;;;;5056533;28;20373;-63
2023/12/23 00:27:05;;;;;;;6.85;1.70;;;10.20;79.40;;;;;;5056742;28;20082;-62
2023/12/23 00:29:31;;;;;;;6.20;1.42;;;10.30;79.40;;;;;;5054242;28;20033;-63
2023/12/23 00:31:57;;;;;;;8.10;1.83;;;10.20;79.30;;;;;;5055733;28;20032;-62
2023/12/23 00:34:23;;;;;;;8.68;2.17;;;10.20;79.40;;;;;;5054121;28;20359;-62
2023/12/23 00:36:49;;;;;;;7.75;1.95;;;10.20;79.40;;;;;;5056750;28;20032;-62
2023/12/23 00:39:18;;;;;;;7.03;1.60;;;10.20;79.50;;;;;;5051023;28;20052;-62
2023/12/23 00:41:44;;;;;;;6.90;2.10;;;10.20;79.60;;;;;;5052119;28;20032;-62
2023/12/23 00:44:09;;;;;;;7.00;1.52;;;10.20;79.60;;;;;;5055604;28;20021;-62
2023/12/23 00:46:35;;;;;;;5.57;1.25;;;10.20;80.30;;;;;;5039410;28;20025;-62
2023/12/23 00:49:01;;;;;;;9.98;2.33;;;10.20;80.20;;;;;;5057237;28;20017;-62
2023/12/23 00:51:27;;;;;;;8.75;1.60;;;10.20;79.60;;;;;;5037576;28;20346;-62
2023/12/23 00:53:53;;;;;;;10.35;1.60;;;10.20;79.60;;;;;;5032479;28;20098;-62
2023/12/23 00:56:20;;;;;;;6.35;1.48;;;10.20;79.70;;;;;;5054374;28;20131;-62
2023/12/23 00:58:46;;;;;;;8.23;1.88;;;10.20;79.70;;;;;;5055370;28;20432;-62
2023/12/23 01:01:12;;;;;;;10.82;2.42;;;10.20;79.70;;;;;;5052290;28;20508;-62
2023/12/23 01:03:37;;;;;;;9.48;2.15;;;10.20;79.80;;;;;;5053304;28;20025;-62
2023/12/23 01:06:03;;;;;;;10.32;1.85;;;10.20;79.80;;;;;;5054869;28;20021;-62
2023/12/23 01:08:30;;;;;;;8.38;1.70;;;10.20;79.80;;;;;;5053099;28;20039;-62
2023/12/23 01:10:56;;;;;;;8.05;2.00;;;10.20;79.80;;;;;;5051832;28;20121;-62
2023/12/23 01:13:22;;;;;;;9.07;1.40;;;10.20;79.90;;;;;;5053900;28;20130;-63
2023/12/23 01:15:48;;;;;;;12.65;2.47;;;10.20;79.90;;;;;;5054277;28;20021;-62
2023/12/23 01:18:14;;;;;;;5.55;1.40;;;10.20;79.90;;;;;;5055844;28;20098;-62
2023/12/23 01:20:42;;;;;;;11.95;1.75;;;10.20;79.80;;;;;;5052276;28;20017;-62
2023/12/23 01:23:08;;;;;;;7.80;1.35;;;10.20;79.90;;;;;;5056233;28;20032;-62
2023/12/23 01:25:34;;;;;;;9.20;2.03;;;10.20;79.90;;;;;;5055354;28;20032;-62
2023/12/23 01:28:06;;;;;;;8.38;1.45;;;10.20;79.90;;;;;;5055791;28;20513;-62
2023/12/23 01:30:32;;;;;;;7.22;1.50;;;10.20;79.90;;;;;;5038910;28;20032;-62
2023/12/23 01:32:58;;;;;;;7.40;1.58;;;10.20;80.00;;;;;;5054235;28;20382;-62
2023/12/23 01:35:24;;;;;;;8.57;1.80;;;10.20;80.00;;;;;;5036321;28;20121;-62
2023/12/23 01:37:49;;;;;;;8.65;1.77;;;10.20;80.00;;;;;;5056369;28;20036;-62
2023/12/23 01:40:15;;;;;;;10.82;2.17;;;10.20;80.10;;;;;;5054679;28;20366;-62
2023/12/23 01:42:41;;;;;;;8.02;1.60;;;10.20;80.10;;;;;;5053637;28;20495;-62
2023/12/23 01:45:07;;;;;;;8.35;2.33;;;10.20;80.10;;;;;;5054391;28;20381;-61
2023/12/23 01:47:34;;;;;;;9.23;1.88;;;10.20;80.10;;;;;;5053987;28;20102;-62
2023/12/23 01:50:02;;;;;;;11.07;2.00;;;10.20;80.10;;;;;;5051968;28;20033;-62
2023/12/23 01:52:29;;;;;;;8.60;1.77;;;10.20;80.10;;;;;;5053510;28;20124;-62
2023/12/23 01:54:55;;;;;;;7.63;1.88;;;10.20;80.10;;;;;;5052834;28;20044;-61
2023/12/23 01:57:21;;;;;;;5.63;1.25;;;10.20;80.10;;;;;;5036948;28;20112;-61
2023/12/23 01:59:49;;;;;;;8.20;1.73;;;10.20;80.20;;;;;;5034771;28;20412;-62
2023/12/23 02:02:16;;;;;;;7.45;1.55;;;10.20;80.30;;;;;;5052349;28;20040;-62
2023/12/23 02:04:42;;;;;;;7.38;1.50;;;10.20;80.30;;;;;;5054319;28;20106;-62
2023/12/23 02:07:08;;;;;;;10.20;2.22;;;10.30;80.30;;;;;;5053701;28;20057;-63
2023/12/23 02:09:35;;;;;;;8.57;1.52;;;10.20;80.30;;;;;;5054307;28;20461;-62
2023/12/23 02:12:26;;;;;;;5.78;1.10;;;10.20;80.40;;;;;;5054260;28;20414;-61
2023/12/23 02:15:07;;;;;;;6.80;1.83;;;10.30;80.50;;;;;;5051928;28;20021;-62
2023/12/23 02:17:33;;;;;;;7.78;1.40;;;10.20;80.50;;;;;;5056471;28;20025;-63
2023/12/23 02:19:59;;;;;;;7.55;1.40;;;10.20;80.60;;;;;;5052281;28;20032;-62
2023/12/23 02:22:24;;;;;;;9.70;1.45;;;10.20;81.40;;;;;;5055502;28;20476;-62
2023/12/23 02:24:50;;;;;;;7.40;1.63;;;10.20;80.70;;;;;;5052267;28;20104;-62
2023/12/23 02:27:22;;;;;;;7.15;1.75;;;10.20;80.80;;;;;;5059941;28;20039;-63
2023/12/23 02:29:50;;;;;;;8.20;1.52;;;10.20;80.80;;;;;;5058224;28;20361;-62
2023/12/23 02:32:17;;;;;;;8.93;1.77;;;10.20;80.80;;;;;;5060821;28;20024;-62
2023/12/23 02:34:43;;;;;;;6.28;1.33;;;10.20;80.90;;;;;;5058068;28;20025;-62
2023/12/23 02:37:09;;;;;;;7.53;1.88;;;10.20;81.00;;;;;;5059310;28;20110;-62
2023/12/23 02:39:34;;;;;;;5.05;1.67;;;10.20;81.00;;;;;;5057371;28;20080;-62
2023/12/23 02:42:00;;;;;;;8.18;1.95;;;10.20;81.10;;;;;;5058754;28;20432;-62
2023/12/23 02:44:26;;;;;;;7.60;1.58;;;10.20;81.20;;;;;;5055672;28;20021;-64
2023/12/23 02:46:52;;;;;;;8.18;2.03;;;10.20;81.20;;;;;;5039132;28;20423;-62
2023/12/23 02:49:18;;;;;;;6.57;1.40;;;10.20;81.30;;;;;;5055087;28;20024;-62
2023/12/23 02:51:43;;;;;;;11.50;1.90;;;10.20;81.30;;;;;;5057104;28;20450;-63
2023/12/23 02:54:09;;;;;;;8.73;1.95;;;10.20;81.40;;;;;;5061247;28;20041;-62
2023/12/23 02:56:35;;;;;;;6.05;1.50;;;10.20;81.40;;;;;;5063299;28;20028;-63
2023/12/23 02:59:00;;;;;;;6.13;1.60;;;10.20;81.50;;;;;;5060841;28;20025;-63
2023/12/23 03:01:27;;;;;;;4.43;1.15;;;10.20;81.50;;;;;;5056155;28;20039;-62
2023/12/23 03:03:52;;;;;;;5.57;1.58;;;10.20;81.50;;;;;;5059067;28;20025;-63
2023/12/23 03:06:18;;;;;;;5.90;1.40;;;10.30;81.60;;;;;;5055851;28;20073;-62
2023/12/23 03:08:44;;;;;;;5.20;1.70;;;10.30;81.70;;;;;;5056842;28;20315;-62
2023/12/23 03:11:10;;;;;;;5.95;1.42;;;10.30;81.70;;;;;;5056778;28;20446;-63
2023/12/23 03:13:35;;;;;;;7.63;1.67;;;10.30;81.70;;;;;;5055665;28;20441;-62
2023/12/23 03:16:01;;;;;;;6.63;2.25;;;10.30;81.80;;;;;;5056219;28;20021;-62
2023/12/23 03:18:27;;;;;;;4.88;1.52;;;10.30;82.50;;;;;;5059094;28;20361;-62
2023/12/23 03:20:53;;;;;;;8.80;2.33;;;10.30;81.90;;;;;;5055340;28;20032;-62
2023/12/23 03:23:19;;;;;;;6.85;2.03;;;10.30;82.00;;;;;;5055955;28;20025;-62
2023/12/23 03:25:44;;;;;;;7.00;2.30;;;10.30;82.10;;;;;;5057708;28;20101;-62
2023/12/23 03:28:10;;;;;;;8.63;1.98;;;10.40;82.10;;;;;;5055533;28;20099;-62
2023/12/23 03:30:36;;;;;;;5.00;2.10;;;10.40;82.20;;;;;;5058349;28;20037;-62
2023/12/23 03:33:02;;;;;;;7.53;2.33;;;10.40;82.10;;;;;;5056778;28;20024;-62
2023/12/23 03:35:28;;;;;;;8.43;2.22;;;10.50;82.30;;;;;;5050893;28;20035;-62
2023/12/23 03:37:54;;;;;;;5.85;2.50;;;10.50;82.50;;;;;;5056835;28;20052;-62
2023/12/23 03:40:20;;;;;;;8.38;2.20;;;10.50;82.60;;;;;;5053254;28;20032;-62
2023/12/23 03:42:47;;;;;;;6.90;2.67;;;10.50;82.70;;;;;;5057873;28;20039;-62
2023/12/23 03:45:12;;;;;;;12.02;2.65;;;10.50;82.80;;;;;;5055206;28;20020;-63
2023/12/23 03:47:40;;;;;;;7.57;2.50;;;10.60;83.00;;;;;;5057581;28;20128;-62
2023/12/23 03:50:07;;;;;;;7.60;2.65;;;10.50;82.90;;;;;;5052490;28;20033;-63
2023/12/23 03:52:32;;;;;;;6.95;2.30;;;10.60;83.10;;;;;;5057055;28;20029;-62
2023/12/23 03:54:58;;;;;;;12.23;2.50;;;10.60;83.20;;;;;;5055547;28;20086;-61
2023/12/23 03:57:24;;;;;;;8.98;2.25;;;10.60;83.30;;;;;;5040719;28;20052;-62
2023/12/23 03:59:50;;;;;;;6.50;1.80;;;10.60;83.30;;;;;;5054469;28;20041;-61
2023/12/23 04:02:15;;;;;;;5.43;1.73;;;10.60;83.30;;;;;;5056200;28;20415;-62
2023/12/23 04:04:41;;;;;;;10.52;2.20;;;10.60;83.30;;;;;;5056231;28;20058;-61
2023/12/23 04:07:07;;;;;;;9.15;2.40;;;10.70;83.30;;;;;;5057575;28;20040;-64
2023/12/23 04:09:33;;;;;;;6.78;2.00;;;10.70;83.30;;;;;;5051370;28;20028;-61
2023/12/23 04:11:58;;;;;;;7.07;1.73;;;10.70;83.20;;;;;;5052952;28;20025;-62
2023/12/23 04:14:24;;;;;;;5.55;1.75;;;10.70;83.20;;;;;;5037809;28;20166;-61
2023/12/23 04:16:50;;;;;;;10.70;2.00;;;10.70;83.20;;;;;;5051206;28;20029;-61
2023/12/23 04:19:16;;;;;;;6.63;2.38;;;10.70;83.20;;;;;;5054068;28;20033;-61
2023/12/23 04:21:41;;;;;;;7.55;1.60;;;10.70;83.20;;;;;;5038929;28;20013;-61
2023/12/23 04:24:07;;;;;;;8.77;2.17;;;10.80;83.20;;;;;;5038270;28;20028;-61
2023/12/23 04:26:33;;;;;;;9.75;2.42;;;10.80;83.20;;;;;;5057815;28;20028;-61
2023/12/23 04:28:59;;;;;;;7.45;2.00;;;10.80;83.20;;;;;;5037713;28;20242;-61
2023/12/23 04:31:25;;;;;;;8.38;1.90;;;10.80;83.20;;;;;;5044402;28;20457;-61
2023/12/23 04:33:51;;;;;;;7.90;1.88;;;10.80;83.10;;;;;;5055002;28;20020;-61
2023/12/23 04:36:22;;;;;;;7.75;1.98;;;10.80;83.10;;;;;;5054988;28;20021;-61
2023/12/23 04:38:49;;;;;;;;;;;10.80;83.10;;;;;;5054298;28;20041;-61
2023/12/23 04:41:14;;;;;;;8.35;1.83;;;10.80;83.10;;;;;;5053168;28;19923;-61
2023/12/23 04:43:40;;;;;;;8.13;2.08;;;10.80;83.00;;;;;;5038927;28;20032;-61
2023/12/23 04:46:06;;;;;;;10.30;2.10;;;10.80;83.00;;;;;;5055469;28;20450;-61
2023/12/23 04:48:32;;;;;;;9.05;1.75;;;10.80;83.10;;;;;;5055824;28;20028;-61
2023/12/23 04:50:58;;;;;;;6.63;1.75;;;10.80;83.10;;;;;;5054379;28;20021;-61
2023/12/23 04:53:24;;;;;;;6.68;1.63;;;10.90;83.20;;;;;;5054611;28;20024;-61
2023/12/23 04:55:50;;;;;;;9.85;2.20;;;10.80;83.20;;;;;;5056054;28;20079;-61
2023/12/23 04:58:16;;;;;;;9.13;2.10;;;10.80;83.30;;;;;;5054173;28;20087;-61
2023/12/23 05:00:42;;;;;;;8.48;2.15;;;10.80;83.40;;;;;;5051652;28;20067;-61
2023/12/23 05:03:07;;;;;;;7.40;2.60;;;10.80;83.40;;;;;;5053143;28;20049;-61
2023/12/23 05:05:33;;;;;;;5.00;1.50;;;10.80;83.40;;;;;;5057735;28;20111;-61
2023/12/23 05:07:59;;;;;;;5.32;1.48;;;10.80;83.40;;;;;;5055247;28;20033;-61
2023/12/23 05:10:25;;;;;;;10.25;2.70;;;10.90;83.40;;;;;;5052206;28;20040;-61
2023/12/23 05:12:50;;;;;;;7.72;1.75;;;10.90;83.40;;;;;;5047800;28;20057;-61
2023/12/23 05:15:16;;;;;;;9.05;2.00;;;10.90;83.30;;;;;;5050625;28;20060;-61
2023/12/23 05:17:43;;;;;;;8.82;2.50;;;10.90;83.20;;;;;;5035412;28;20029;-62
2023/12/23 05:20:10;;;;;;;9.50;2.33;;;10.90;83.10;;;;;;5049625;28;20220;-61
2023/12/23 05:22:36;;;;;;;6.63;2.35;;;10.90;83.10;;;;;;5039020;28;20025;-62
2023/12/23 05:25:02;;;;;;;8.32;2.30;;;10.90;83.10;;;;;;5052773;28;20032;-62
2023/12/23 05:27:28;;;;;;;9.07;1.98;;;11.00;83.00;;;;;;5049400;28;20303;-61
2023/12/23 05:29:55;;;;;;;9.80;2.15;;;10.90;83.00;;;;;;5033157;28;20033;-61
2023/12/23 05:32:21;;;;;;;7.10;1.90;;;11.00;83.00;;;;;;5049286;28;20037;-61
2023/12/23 05:34:47;;;;;;;8.57;2.40;;;11.00;82.90;;;;;;5053290;28;20370;-62
2023/12/23 05:37:12;;;;;;;8.00;1.95;;;11.00;82.90;;;;;;5058042;28;20025;-62
2023/12/23 05:39:39;;;;;;;7.32;1.63;;;11.00;82.90;;;;;;5042053;28;20045;-62
2023/12/23 05:42:05;;;;;;;7.50;1.77;;;11.00;82.90;;;;;;5038359;28;20108;-62
2023/12/23 05:44:30;;;;;;;7.60;2.50;;;11.00;82.80;;;;;;5041543;28;20104;-63
2023/12/23 05:46:56;;;;;;;10.10;2.53;;;11.00;82.70;;;;;;5047340;28;20040;-62
2023/12/23 05:49:22;;;;;;;6.40;2.05;;;11.00;82.70;;;;;;5038539;28;20122;-62
2023/12/23 05:51:48;;;;;;;6.90;1.90;;;11.00;82.80;;;;;;5048359;28;20108;-63
2023/12/23 05:54:13;;;;;;;9.15;1.80;;;11.00;82.80;;;;;;5036981;28;20029;-62
2023/12/23 05:56:39;;;;;;;8.75;2.03;;;11.00;82.90;;;;;;5040985;28;20361;-62
2023/12/23 05:59:05;;;;;;;8.77;2.72;;;11.00;82.90;;;;;;5043921;28;20095;-62
2023/12/23 06:01:31;;;;;;;9.88;2.20;;;11.00;83.00;;;;;;5041200;28;20025;-62
2023/12/23 06:03:56;;;;;;;12.05;2.85;;;10.90;83.00;;;;;;5037792;28;20027;-62
2023/12/23 06:06:22;;;;;;;7.82;2.03;;;11.00;83.10;;;;;;5034611;28;20526;-62
2023/12/23 06:08:48;;;;;;;9.48;2.47;;;11.00;83.10;;;;;;5043489;28;20016;-63
2023/12/23 06:11:15;;;;;;;9.05;2.00;;;10.90;83.20;;;;;;5048607;28;20459;-62
2023/12/23 06:13:40;;;;;;;8.88;2.22;;;10.90;83.20;;;;;;5035903;28;20028;-62
2023/12/23 06:16:07;;;;;;;5.38;2.05;;;10.90;83.30;;;;;;5040712;28;20025;-62
2023/12/23 06:18:33;;;;;;;9.40;2.28;;;11.00;83.40;;;;;;5040522;28;20057;-62
2023/12/23 06:20:59;;;;;;;7.25;1.70;;;10.90;83.30;;;;;;5036744;28;20028;-62
2023/12/23 06:23:25;;;;;;;7.97;1.98;;;10.90;83.40;;;;;;5044602;28;20039;-62
2023/12/23 06:25:50;;;;;;;11.20;2.13;;;10.90;83.40;;;;;;5051083;28;20029;-63
2023/12/23 06:28:16;;;;;;;8.88;2.10;;;11.00;83.40;;;;;;5051336;28;20036;-62
2023/12/23 06:30:42;;;;;;;10.25;2.47;;;11.00;83.40;;;;;;5051403;28;20032;-62
2023/12/23 06:33:08;;;;;;;7.97;2.20;;;11.00;83.50;;;;;;5041047;28;20465;-62
2023/12/23 06:35:33;;;;;;;9.50;2.63;;;11.00;83.50;;;;;;5049215;28;20339;-62
2023/12/23 06:37:59;;;;;;;16.30;2.22;;;11.00;83.50;;;;;;5052940;28;20333;-62
2023/12/23 06:40:28;;;;;;;7.68;2.30;;;11.00;83.50;;;;;;5053063;28;20460;-62
2023/12/23 06:42:54;;;;;;;8.75;2.55;;;11.00;83.50;;;;;;5049780;28;20029;-62
2023/12/23 06:45:19;;;;;;;7.65;2.20;;;11.00;83.60;;;;;;5051109;28;20032;-62
2023/12/23 06:47:45;;;;;;;10.32;2.17;;;11.00;83.70;;;;;;5052851;28;20053;-62
2023/12/23 06:50:11;;;;;;;9.68;2.20;;;11.00;83.70;;;;;;5051455;28;20111;-62
2023/12/23 06:52:37;;;;;;;8.75;2.15;;;10.90;83.70;;;;;;5050238;28;20033;-62
2023/12/23 06:55:03;;;;;;;7.85;1.90;;;11.00;83.80;;;;;;5045182;28;20022;-62
2023/12/23 06:57:28;;;;;;;10.00;2.55;;;11.00;83.80;;;;;;5049432;28;20033;-62
2023/12/23 06:59:56;;;;;;;10.20;2.10;;;11.00;83.80;;;;;;5052387;28;20424;-62
2023/12/23 07:02:22;;;;;;;13.68;2.20;;;11.00;83.90;;;;;;5059689;28;20082;-62
2023/12/23 07:04:48;;;;;;;8.90;2.35;;;11.00;83.90;;;;;;5074069;28;20437;-62
2023/12/23 07:07:14;;;;;;;12.15;2.25;;;11.00;83.80;;;;;;5064723;28;20115;-62
2023/12/23 07:09:40;;;;;;;6.65;2.13;;;11.00;83.80;;;;;;5076552;28;20462;-62
2023/12/23 07:12:07;;;;;;;11.40;2.60;;;11.00;83.80;;;;;;5077357;28;20032;-62
2023/12/23 07:14:33;;;;;;;7.78;2.17;;;11.00;83.80;;;;;;5076283;28;20035;-62
2023/12/23 07:16:58;;;;;;;10.35;2.80;;;11.00;83.80;;;;;;5065656;28;20021;-62
2023/12/23 07:19:24;;;;;;;10.70;2.35;;;11.00;83.80;;;;;;5058587;28;20025;-62
2023/12/23 07:21:53;;;;;;;8.40;2.08;;;11.00;83.80;;;;;;5057302;28;20009;-62
2023/12/23 07:24:22;;;;;;;11.43;2.72;;;11.00;83.80;;;;;;5058023;28;20032;-62
2023/12/23 07:26:48;;;;;;;10.05;2.30;;;11.00;83.80;;;;;;5054904;28;20447;-62
2023/12/23 07:29:14;;;;;;;10.82;2.33;;;11.00;83.80;;;;;;5057371;28;20024;-62
2023/12/23 07:31:39;;;;;;;8.10;2.00;;;11.10;83.80;;;;;;5056828;28;20028;-62
2023/12/23 07:34:06;;;;;;;9.88;1.80;;;11.10;83.80;;;;;;5059900;28;20445;-62
2023/12/23 07:36:31;;;;;;;7.38;2.40;;;11.10;83.70;;;;;;5060075;28;20071;-62
2023/12/23 07:38:57;;;;;;;11.30;2.22;;;11.10;83.70;;;;;;5068592;28;20158;-62
2023/12/23 07:41:24;;;;;;;9.88;2.10;;;11.10;83.70;;;;;;5066795;28;20108;-62
2023/12/23 07:43:50;;;;;;;10.07;2.20;;;11.10;83.60;;;;;;5068594;28;20032;-62
2023/12/23 07:46:16;;;;;;;8.07;2.38;;;11.10;83.60;;;;;;5071289;28;20391;-62
2023/12/23 07:48:42;;;;;;;10.48;2.17;;;11.10;83.60;;;;;;5072782;28;20034;-62
2023/12/23 07:51:10;;;;;;;9.45;2.33;;;11.10;83.50;;;;;;5060083;28;20120;-62
2023/12/23 07:53:36;;;;;;;8.73;2.10;;;11.10;83.50;;;;;;5061316;28;20029;-62
2023/12/23 07:56:03;;;;;;;10.07;2.45;;;11.10;83.40;;;;;;5066797;28;20096;-62
2023/12/23 07:58:29;;;;;;;7.30;1.80;;;11.20;83.40;;;;;;5069125;28;20105;-62
2023/12/23 08:00:55;;;;;;;9.68;2.95;;;11.20;83.40;;;;;;5064449;28;20421;-62
2023/12/23 08:03:20;;;;;;;11.00;2.30;;;11.20;83.30;;;;;;5062391;28;20033;-63
2023/12/23 08:05:46;;;;;;;11.07;2.92;;;11.20;83.20;;;;;;5058662;28;20093;-62
2023/12/23 08:08:13;;;;;;;10.57;2.10;;;11.20;83.20;;;;;;5069350;28;20025;-62
2023/12/23 08:10:39;;;;;;;6.97;2.05;;;11.20;83.20;;;;;;5076449;28;20032;-63
2023/12/23 08:13:06;;;;;;;8.07;2.25;;;11.20;83.10;;;;;;5067642;28;20357;-63
2023/12/23 08:15:32;;;;;;;6.95;1.75;;;11.20;83.00;;;;;;5050528;28;20025;-62
2023/12/23 08:17:58;;;;;;;12.05;2.15;;;11.20;83.00;;;;;;5075273;28;20029;-62
2023/12/23 08:20:24;;;;;;;7.47;2.17;;;11.20;83.00;;;;;;5075922;28;20465;-62
2023/12/23 08:22:50;;;;;;;8.45;1.80;;;11.20;82.90;;;;;;5070948;28;20025;-62
2023/12/23 08:25:16;;;;;;;10.00;1.67;;;11.20;82.90;;;;;;5068937;28;20310;-62
2023/12/23 08:27:42;;;;;;;9.10;2.05;;;11.30;83.50;;;;;;5066954;28;20104;-62
2023/12/23 08:30:08;;;;;;;7.20;1.77;;;11.30;82.80;;;;;;5066596;28;20517;-62
2023/12/23 08:32:34;;;;;;;9.75;2.83;;;11.30;82.60;;;;;;5068553;28;20046;-62
2023/12/23 08:35:00;;;;;;;9.60;2.78;;;11.30;82.60;;;;;;5063516;28;20021;-62
2023/12/23 08:37:26;;;;;;;6.70;1.70;;;11.30;82.50;;;;;;5065740;28;20453;-63
2023/12/23 08:39:52;;;;;;;8.40;2.10;;;11.40;82.40;;;;;;5058026;28;20115;-63
2023/12/23 08:42:18;;;;;;;11.30;1.77;;;11.40;82.30;;;;;;5068636;28;20032;-63
2023/12/23 08:44:45;;;;;;;7.88;1.85;;;11.40;82.20;;;;;;5063650;28;20357;-62
2023/12/23 08:47:12;;;;;;;4.60;1.27;;;11.40;82.10;;;;;;5060798;28;20071;-64
2023/12/23 08:49:39;;;;;;;11.40;2.30;;;11.50;82.00;;;;;;5069200;28;20052;-62
2023/12/23 08:52:06;;;;;;;8.75;1.98;;;11.50;81.90;;;;;;5064736;28;20028;-63
2023/12/23 08:54:32;;;;;;;12.85;2.08;;;11.50;81.80;;;;;;5064046;28;20033;-63
2023/12/23 08:56:58;;;;;;;8.00;2.63;;;11.50;81.70;;;;;;5056697;28;20065;-63
2023/12/23 08:59:24;;;;;;;6.28;2.03;;;11.50;81.70;;;;;;5068751;28;20044;-63
2023/12/23 09:01:49;;;;;;;6.28;1.48;;;11.50;81.60;;;;;;5064053;28;20025;-63
2023/12/23 09:04:16;;;;;;;6.82;1.45;;;11.50;81.50;;;;;;5068031;28;20040;-63
2023/12/23 09:06:42;;;;;;;5.97;1.73;;;11.50;81.40;;;;;;5062491;28;20082;-63
2023/12/23 09:09:07;;;;;;;5.88;1.83;;;11.50;81.40;;;;;;5055060;28;20024;-63
2023/12/23 09:11:33;;;;;;;7.50;1.65;;;11.50;81.20;;;;;;5064187;28;20088;-63
2023/12/23 09:13:59;;;;;;;7.80;2.25;;;11.50;81.20;;;;;;5066088;28;20021;-63
2023/12/23 09:16:25;;;;;;;6.70;1.70;;;11.50;81.20;;;;;;5053592;28;20414;-65
2023/12/23 09:18:50;;;;;;;10.30;2.33;;;11.50;81.10;;;;;;5051298;28;20028;-63
2023/12/23 09:21:16;;;;;;;7.75;1.90;;;11.50;81.00;;;;;;5053139;28;20036;-63
2023/12/23 09:23:42;;;;;;;12.23;2.10;;;11.50;81.00;;;;;;5049758;28;20021;-62
2023/12/23 09:26:07;;;;;;;5.93;1.75;;;11.50;80.90;;;;;;5033719;28;20442;-62
2023/12/23 09:28:33;;;;;;;7.40;2.33;;;11.50;80.90;;;;;;5053394;28;20025;-62
2023/12/23 09:30:59;;;;;;;8.32;1.88;;;11.60;80.90;;;;;;5052293;28;20366;-62
2023/12/23 09:33:25;;;;;;;6.65;1.60;;;11.60;80.90;;;;;;5054034;28;20028;-62
2023/12/23 09:35:50;;;;;;;5.20;1.98;;;11.60;80.90;;;;;;5053613;28;20025;-62
2023/12/23 09:38:16;;;;;;;10.60;2.13;;;11.60;80.90;;;;;;5050606;28;20431;-61
2023/12/23 09:40:42;;;;;;;6.30;1.83;;;11.60;80.80;;;;;;5052535;28;20041;-62
2023/12/23 09:43:08;;;;;;;13.43;2.72;;;11.60;80.80;;;;;;5052822;28;20079;-62
2023/12/23 09:45:40;;;;;;;11.25;2.22;;;11.60;80.80;;;;;;5050704;28;20718;-63
2023/12/23 09:48:05;;;;;;;;;;;11.60;80.70;;;;;;5052944;28;20082;-62
2023/12/23 09:50:31;;;;;;;8.43;1.75;;;11.60;80.80;;;;;;5053364;28;19916;-62
2023/12/23 09:53:02;;;;;;;6.78;1.50;;;11.60;80.80;;;;;;5051653;28;20143;-62
2023/12/23 09:55:30;;;;;;;6.18;1.45;;;11.60;80.80;;;;;;5054021;28;20433;-62
2023/12/23 09:57:57;;;;;;;7.00;1.58;;;11.60;80.80;;;;;;5053443;28;20476;-64
2023/12/23 10:00:23;;;;;;;8.32;2.10;;;11.60;80.70;;;;;;5053503;28;20021;-62
2023/12/23 10:02:48;;;;;;;5.78;1.70;;;11.60;80.70;;;;;;5054473;28;20094;-63
2023/12/23 10:05:14;;;;;;;8.63;2.40;;;11.60;80.70;;;;;;5056529;28;20033;-63
2023/12/23 10:07:40;;;;;;;8.07;2.42;;;11.70;80.70;;;;;;5049186;28;20127;-63
2023/12/23 10:10:06;;;;;;;7.53;2.45;;;11.70;80.70;;;;;;5052605;28;20464;-62
2023/12/23 10:12:32;;;;;;;7.18;2.22;;;11.70;80.60;;;;;;5051886;28;20119;-63
2023/12/23 10:14:58;;;;;;;9.75;2.47;;;11.70;80.60;;;;;;5050235;28;20454;-64
2023/12/23 10:17:24;;;;;;;6.15;1.88;;;11.70;80.50;;;;;;5049877;28;20041;-64
2023/12/23 10:19:51;;;;;;;7.53;2.13;;;11.70;80.50;;;;;;5053698;28;20017;-64
2023/12/23 10:22:17;;;;;;;7.70;2.15;;;11.80;80.50;;;;;;5054409;28;20033;-63
2023/12/23 10:24:43;;;;;;;9.50;1.88;;;11.80;80.40;;;;;;5052931;28;20036;-62
2023/12/23 10:27:10;;;;;;;7.85;2.08;;;11.80;80.30;;;;;;5053673;28;20036;-63
2023/12/23 10:29:39;;;;;;;9.25;2.28;;;11.80;80.30;;;;;;5060290;28;20035;-63
2023/12/23 10:32:07;;;;;;;6.07;1.85;;;11.80;80.20;;;;;;5056454;28;20345;-64
2023/12/23 10:34:49;;;;;;;6.10;1.70;;;11.80;80.20;;;;;;5057056;28;20068;-63
2023/12/23 10:37:16;;;;;;;6.93;1.85;;;11.80;80.20;;;;;;5054993;28;20035;-64
2023/12/23 10:40:28;;;;;;;5.97;2.17;;;11.80;80.20;;;;;;5057534;28;20043;-63
2023/12/23 10:42:58;;;;;;;8.07;1.88;;;11.80;80.10;;;;;;5048944;28;20040;-63
2023/12/23 10:45:24;;;;;;;10.05;2.08;;;11.80;80.10;;;;;;5046105;28;20039;-65
2023/12/23 10:47:52;;;;;;;8.77;2.08;;;11.80;80.10;;;;;;5058000;28;20082;-62
2023/12/23 10:50:18;;;;;;;8.77;2.03;;;11.80;80.10;;;;;;5053053;28;20025;-62
2023/12/23 10:52:44;;;;;;;8.98;2.08;;;11.80;80.00;;;;;;5056880;28;20039;-63
2023/12/23 10:55:14;;;;;;;6.75;1.92;;;11.90;80.00;;;;;;5037223;28;20044;-62
2023/12/23 10:57:41;;;;;;;9.88;1.80;;;11.90;80.00;;;;;;5056217;28;20035;-62
2023/12/23 11:00:09;;;;;;;6.95;1.50;;;11.90;79.90;;;;;;5055436;28;20033;-61
2023/12/23 11:02:37;;;;;;;8.23;1.90;;;11.90;79.90;;;;;;5055497;28;20033;-62
2023/12/23 11:05:07;;;;;;;8.27;2.15;;;11.90;79.90;;;;;;5057651;28;20025;-61
2023/12/23 11:07:42;;;;;;;13.02;2.80;;;11.90;80.50;;;;;;5056426;28;20021;-62
2023/12/23 11:10:09;;;;;;;8.75;2.08;;;11.80;79.70;;;;;;5056282;28;20091;-62
2023/12/23 11:12:35;;;;;;;6.18;1.73;;;11.90;79.70;;;;;;5055837;28;20029;-62
2023/12/23 11:15:02;;;;;;;9.20;1.58;;;11.90;79.70;;;;;;5055521;28;20056;-62
2023/12/23 11:17:29;;;;;;;5.82;1.73;;;11.90;79.60;;;;;;5056016;28;20123;-62
2023/12/23 11:20:00;;;;;;;8.30;2.00;;;12.00;79.60;;;;;;5057038;28;20025;-62
2023/12/23 11:22:37;;;;;;;7.63;1.63;;;11.90;79.50;;;;;;5056978;28;20326;-62
2023/12/23 11:25:03;;;;;;;7.60;1.83;;;11.90;79.40;;;;;;5056903;28;20037;-62
2023/12/23 11:27:30;;;;;;;7.85;1.85;;;11.90;79.30;;;;;;5055174;28;20079;-62
2023/12/23 11:29:59;;;;;;;5.65;1.48;;;12.00;79.30;;;;;;5055707;28;20037;-63
2023/12/23 11:32:25;;;;;;;7.43;1.95;;;12.00;79.20;;;;;;5055083;28;20060;-62
2023/12/23 11:34:52;;;;;;;6.40;1.65;;;12.00;79.20;;;;;;5053775;28;20017;-63
2023/12/23 11:37:17;;;;;;;6.32;1.70;;;12.00;79.10;;;;;;5056110;28;20040;-62
2023/12/23 11:39:45;;;;;;;6.57;1.45;;;12.00;78.90;;;;;;5039031;28;20872;-62
2023/12/23 11:42:13;;;;;;;6.55;1.35;;;12.10;78.90;;;;;;5057429;28;20103;-62
2023/12/23 11:44:41;;;;;;;4.65;1.38;;;12.10;78.80;;;;;;5054859;28;20460;-62
2023/12/23 11:47:08;;;;;;;7.57;1.92;;;12.10;78.70;;;;;;5053755;28;20031;-62
2023/12/23 11:49:34;;;;;;;5.80;1.60;;;12.10;78.60;;;;;;5057951;28;20384;-62
2023/12/23 11:52:00;;;;;;;5.70;1.60;;;12.10;78.50;;;;;;5058279;28;20454;-62
2023/12/23 11:54:27;;;;;;;5.25;1.50;;;12.10;78.40;;;;;;5056821;28;20036;-62
2023/12/23 11:56:52;;;;;;;6.40;1.55;;;12.10;78.30;;;;;;5056598;28;20029;-62
2023/12/23 11:59:18;;;;;;;8.75;1.63;;;12.20;78.20;;;;;;5055984;28;20331;-62
2023/12/23 12:01:47;;;;;;;5.38;1.40;;;12.20;78.10;;;;;;5058982;28;20033;-62
2023/12/23 12:04:13;;;;;;;5.18;1.38;;;12.20;78.00;;;;;;5056978;28;20029;-63
2023/12/23 12:06:38;;;;;;;7.20;1.48;;;12.20;77.90;;;;;;5052056;28;20024;-63
2023/12/23 12:09:06;;;;;;;6.95;1.70;;;12.20;77.90;;;;;;5053247;28;20408;-63
2023/12/23 12:11:33;;;;;;;5.65;1.70;;;12.30;77.90;;;;;;5053160;28;20041;-63
2023/12/23 12:13:59;;;;;;;6.38;1.20;;;12.20;77.60;;;;;;5034652;28;20029;-63
2023/12/23 12:16:27;;;;;;;5.65;1.40;;;12.20;77.60;;;;;;5056016;28;20025;-63
2023/12/23 12:18:52;;;;;;;8.52;1.70;;;12.20;77.60;;;;;;5039448;28;20036;-63
2023/12/23 12:21:19;;;;;;;7.22;1.15;;;12.30;77.50;;;;;;5053667;28;20029;-63
2023/12/23 12:23:45;;;;;;;4.68;1.25;;;12.30;77.40;;;;;;5054961;28;20084;-63
2023/12/23 12:26:11;;;;;;;5.78;1.83;;;12.20;77.30;;;;;;5042467;28;20068;-63
2023/12/23 12:28:36;;;;;;;5.45;1.27;;;12.30;77.30;;;;;;5039143;28;20069;-63
2023/12/23 12:31:10;;;;;;;4.28;1.48;;;12.30;77.90;;;;;;5040840;28;20024;-63
2023/12/23 12:33:39;;;;;;;7.65;1.23;;;12.30;77.00;;;;;;5037596;28;20057;-63
2023/12/23 12:36:11;;;;;;;8.13;1.92;;;12.30;77.10;;;;;;5041251;28;20025;-63
2023/12/23 12:38:37;;;;;;;8.98;1.63;;;12.30;77.00;;;;;;5040296;28;20144;-64
2023/12/23 12:41:03;;;;;;;6.03;1.42;;;12.30;77.00;;;;;;5045112;28;20418;-63